Time;durP1;ratioP1;P1;durP2;ratioP2;P2;SDS_P1;SDS_P2;PMS_P1;PMS_P2;Temp;Humidity;BMP_temperature;BMP_pressure;BME280_temperature;BME280_humidity;BME280_pressure;Samples;Min_cycle;Max_cycle;Signal;HPM_P1;HPM_P2
2021/03/04 00:02:25;;;;;;;3.40;2.20;;;7.20;98.00;;;;;;5071809;28;20895;-69
2021/03/04 00:04:51;;;;;;;2.27;1.80;;;7.30;98.00;;;;;;5074038;28;20976;-69
2021/03/04 00:07:18;;;;;;;3.00;2.37;;;7.40;98.00;;;;;;5071439;28;20514;-69
2021/03/04 00:09:45;;;;;;;5.37;2.37;;;7.20;98.00;;;;;;5072800;28;20492;-69
2021/03/04 00:12:14;;;;;;;2.40;1.40;;;7.30;98.00;;;;;;5071442;28;20845;-69
2021/03/04 00:14:41;;;;;;;2.23;2.07;;;7.20;98.00;;;;;;5073559;28;20454;-69
2021/03/04 00:17:09;;;;;;;2.17;2.00;;;7.10;98.00;;;;;;5071162;28;20482;-70
2021/03/04 00:19:36;;;;;;;2.80;2.40;;;7.10;98.00;;;;;;5073383;28;20942;-69
2021/03/04 00:22:03;;;;;;;1.80;1.57;;;7.10;98.00;;;;;;5071036;28;20483;-69
2021/03/04 00:24:29;;;;;;;3.00;2.07;;;7.10;98.00;;;;;;5073224;28;20468;-69
2021/03/04 00:26:56;;;;;;;3.30;2.17;;;7.10;98.00;;;;;;5071060;28;20495;-69
2021/03/04 00:29:23;;;;;;;2.53;2.13;;;7.00;98.00;;;;;;5073216;28;20462;-69
2021/03/04 00:31:50;;;;;;;1.90;1.90;;;7.10;98.00;;;;;;5070764;28;20465;-69
2021/03/04 00:34:18;;;;;;;6.30;2.40;;;7.10;98.00;;;;;;5071760;28;20551;-69
2021/03/04 00:36:44;;;;;;;3.10;1.77;;;7.10;98.00;;;;;;5070453;28;20458;-69
2021/03/04 00:39:11;;;;;;;1.70;1.70;;;7.00;98.00;;;;;;5072430;28;20450;-68
2021/03/04 00:41:45;;;;;;;1.50;1.40;;;7.20;98.00;;;;;;5070825;28;20514;-69
2021/03/04 00:44:11;;;;;;;3.27;2.53;;;7.20;98.00;;;;;;5072838;28;20488;-69
2021/03/04 00:46:38;;;;;;;4.93;2.37;;;7.20;98.00;;;;;;5070514;28;20521;-69
2021/03/04 00:49:04;;;;;;;1.83;1.47;;;7.10;98.00;;;;;;5072650;28;20452;-69
2021/03/04 00:51:34;;;;;;;2.00;1.80;;;7.10;98.00;;;;;;5070500;28;20491;-69
2021/03/04 00:54:07;;;;;;;1.93;1.60;;;7.00;98.00;;;;;;5072532;28;20778;-69
2021/03/04 00:56:37;;;;;;;1.40;1.37;;;6.90;98.00;;;;;;5070180;28;20498;-69
2021/03/04 00:59:04;;;;;;;2.30;1.80;;;6.80;98.00;;;;;;5072102;28;20486;-69
2021/03/04 01:01:30;;;;;;;3.70;2.23;;;6.70;98.00;;;;;;5070346;28;20462;-69
2021/03/04 01:03:57;;;;;;;2.90;2.73;;;6.60;98.00;;;;;;5054688;28;20524;-69
2021/03/04 01:06:24;;;;;;;3.73;1.80;;;6.70;98.00;;;;;;5070088;28;20874;-69
2021/03/04 01:08:51;;;;;;;2.57;2.13;;;6.70;98.00;;;;;;5071914;28;20504;-69
2021/03/04 01:11:18;;;;;;;4.20;2.47;;;6.70;98.00;;;;;;5070042;28;20872;-69
2021/03/04 01:13:45;;;;;;;5.03;2.30;;;6.80;98.00;;;;;;5072090;28;20459;-69
2021/03/04 01:16:11;;;;;;;2.47;2.23;;;6.80;98.00;;;;;;5070230;28;20451;-70
2021/03/04 01:18:38;;;;;;;1.40;1.30;;;6.70;98.00;;;;;;5072110;28;20551;-69
2021/03/04 01:21:07;;;;;;;4.20;1.90;;;6.70;98.00;;;;;;5071535;28;20465;-69
2021/03/04 01:23:33;;;;;;;2.67;2.13;;;6.60;98.00;;;;;;5072113;28;20453;-70
2021/03/04 01:26:04;;;;;;;2.73;2.10;;;6.50;98.00;;;;;;5071937;28;20574;-69
2021/03/04 01:28:30;;;;;;;2.17;1.90;;;6.60;98.00;;;;;;5070332;28;20561;-69
2021/03/04 01:30:57;;;;;;;3.40;2.20;;;6.70;98.00;;;;;;5071785;28;20849;-69
2021/03/04 01:33:23;;;;;;;2.97;2.50;;;6.80;98.00;;;;;;5069838;28;20547;-69
2021/03/04 01:35:50;;;;;;;2.50;2.20;;;6.80;98.00;;;;;;5071945;28;20922;-70
2021/03/04 01:38:16;;;;;;;2.60;1.90;;;6.80;98.00;;;;;;5069960;28;20458;-69
2021/03/04 01:40:44;;;;;;;2.20;1.70;;;6.80;98.00;;;;;;5071983;28;20517;-69
2021/03/04 01:43:12;;;;;;;9.80;1.90;;;6.80;98.00;;;;;;5069647;28;20453;-70
2021/03/04 01:45:38;;;;;;;2.30;2.13;;;6.80;98.00;;;;;;5071609;28;20942;-70
2021/03/04 01:48:06;;;;;;;5.33;1.80;;;6.80;98.00;;;;;;5069607;28;20504;-69
2021/03/04 01:50:33;;;;;;;3.87;1.77;;;6.70;98.00;;;;;;5071555;28;20454;-69
2021/03/04 01:52:59;;;;;;;1.77;1.57;;;6.60;98.00;;;;;;5069635;28;20483;-69
2021/03/04 01:55:26;;;;;;;2.47;1.40;;;6.50;98.00;;;;;;5071602;28;20492;-70
2021/03/04 01:57:55;;;;;;;2.97;2.37;;;6.60;98.00;;;;;;5069727;28;20647;-69
2021/03/04 02:00:23;;;;;;;2.37;1.80;;;6.40;98.00;;;;;;5071565;28;20457;-70
2021/03/04 02:02:50;;;;;;;4.20;2.00;;;6.40;98.00;;;;;;5068129;28;20501;-69
2021/03/04 02:05:18;;;;;;;2.43;1.83;;;6.40;98.00;;;;;;5070219;28;20623;-69
2021/03/04 02:07:56;;;;;;;2.13;1.50;;;6.40;98.00;;;;;;5069193;28;20990;-70
2021/03/04 02:10:30;;;;;;;1.40;1.27;;;6.50;98.00;;;;;;5071316;28;20886;-69
2021/03/04 02:13:04;;;;;;;1.30;1.30;;;6.40;98.00;;;;;;5069234;28;20463;-69
2021/03/04 02:15:40;;;;;;;2.23;2.00;;;6.40;98.00;;;;;;5071298;28;20461;-70
2021/03/04 02:18:12;;;;;;;3.33;2.70;;;6.30;98.00;;;;;;5069159;28;20449;-70
2021/03/04 02:20:57;;;;;;;3.53;2.13;;;6.30;98.00;;;;;;5070337;28;20556;-70
2021/03/04 02:23:43;;;;;;;1.80;1.60;;;6.40;98.00;;;;;;5068160;28;20490;-70
2021/03/04 02:26:26;;;;;;;2.47;2.27;;;6.40;98.00;;;;;;5070522;28;20848;-70
2021/03/04 02:28:57;;;;;;;2.33;1.87;;;6.40;98.00;;;;;;5071057;28;20523;-69
2021/03/04 02:31:24;;;;;;;10.33;2.90;;;6.50;98.00;;;;;;5067602;28;20473;-69
2021/03/04 02:33:52;;;;;;;3.13;2.10;;;6.60;98.00;;;;;;5069520;28;20458;-69
2021/03/04 02:36:19;;;;;;;2.20;2.00;;;6.70;98.00;;;;;;5068287;28;20486;-69
2021/03/04 02:38:47;;;;;;;1.60;1.40;;;6.80;98.00;;;;;;5069822;28;20497;-69
2021/03/04 02:41:14;;;;;;;1.90;1.63;;;6.90;98.00;;;;;;5069549;28;20883;-69
2021/03/04 02:43:42;;;;;;;3.87;2.23;;;6.70;98.00;;;;;;5070258;28;20540;-69
2021/03/04 02:46:11;;;;;;;3.23;1.70;;;6.50;98.00;;;;;;5070796;28;20477;-69
2021/03/04 02:48:39;;;;;;;3.43;2.83;;;6.40;98.00;;;;;;5068658;28;20454;-69
2021/03/04 02:51:08;;;;;;;2.60;2.17;;;6.40;98.00;;;;;;5070865;28;20559;-69
2021/03/04 02:53:36;;;;;;;2.70;2.30;;;6.50;98.00;;;;;;5068606;28;20500;-69
2021/03/04 02:56:05;;;;;;;2.83;2.10;;;6.50;98.00;;;;;;5070604;28;20486;-70
2021/03/04 02:58:32;;;;;;;1.30;1.30;;;6.60;98.00;;;;;;5068461;28;20453;-69
2021/03/04 03:01:01;;;;;;;3.00;1.93;;;6.60;98.00;;;;;;5070760;28;20518;-69
2021/03/04 03:03:30;;;;;;;2.13;1.67;;;6.60;98.00;;;;;;5068668;28;20869;-69
2021/03/04 03:05:58;;;;;;;1.77;1.50;;;6.60;98.00;;;;;;5070741;28;20484;-69
2021/03/04 03:08:25;;;;;;;2.47;2.27;;;6.60;98.00;;;;;;5068584;28;20484;-69
2021/03/04 03:10:53;;;;;;;2.53;2.23;;;6.50;98.00;;;;;;5071033;28;20779;-69
2021/03/04 03:13:20;;;;;;;2.00;1.87;;;6.30;98.00;;;;;;5067162;28;20493;-69
2021/03/04 03:15:47;;;;;;;5.73;2.50;;;6.30;98.00;;;;;;5070835;28;20515;-69
2021/03/04 03:18:13;;;;;;;3.90;2.30;;;6.40;98.00;;;;;;5068372;28;20493;-69
2021/03/04 03:20:41;;;;;;;3.50;1.80;;;6.20;98.00;;;;;;5070357;28;20465;-69
2021/03/04 03:23:08;;;;;;;1.80;1.27;;;6.20;98.00;;;;;;5067967;28;20467;-69
2021/03/04 03:25:36;;;;;;;3.17;2.20;;;6.30;98.00;;;;;;5070145;28;20961;-69
2021/03/04 03:28:04;;;;;;;1.67;1.60;;;6.40;98.00;;;;;;5067888;28;20467;-69
2021/03/04 03:30:31;;;;;;;2.37;1.70;;;6.30;98.00;;;;;;5071039;28;20463;-69
2021/03/04 03:33:02;;;;;;;4.20;1.77;;;6.20;98.00;;;;;;5070377;28;20490;-69
2021/03/04 03:35:29;;;;;;;1.97;1.67;;;6.10;98.00;;;;;;5074263;28;20532;-69
2021/03/04 03:37:58;;;;;;;1.87;1.47;;;6.10;98.00;;;;;;5070358;28;20453;-69
2021/03/04 03:40:26;;;;;;;2.83;1.80;;;6.00;98.00;;;;;;5072969;28;20791;-69
2021/03/04 03:42:55;;;;;;;1.50;1.40;;;5.90;98.00;;;;;;5070254;28;20525;-69
2021/03/04 03:45:25;;;;;;;3.00;2.17;;;6.00;98.00;;;;;;5073925;28;20478;-69
2021/03/04 03:47:52;;;;;;;3.07;1.90;;;6.10;98.00;;;;;;5070080;28;20869;-69
2021/03/04 03:50:21;;;;;;;2.90;2.57;;;6.00;98.00;;;;;;5072595;28;20462;-69
2021/03/04 03:52:48;;;;;;;3.40;3.27;;;6.00;98.00;;;;;;5071206;28;20464;-69
2021/03/04 03:55:17;;;;;;;3.97;2.77;;;5.90;98.00;;;;;;5072512;28;20454;-69
2021/03/04 03:57:45;;;;;;;2.70;1.63;;;6.00;98.00;;;;;;5070902;28;20454;-69
2021/03/04 04:00:13;;;;;;;2.83;1.77;;;6.00;98.00;;;;;;5072339;28;20450;-69
2021/03/04 04:02:42;;;;;;;2.00;1.83;;;6.10;98.00;;;;;;5071074;28;20462;-69
2021/03/04 04:05:10;;;;;;;3.43;1.90;;;6.40;98.00;;;;;;5074072;28;20510;-69
2021/03/04 04:07:38;;;;;;;2.67;1.60;;;6.20;98.00;;;;;;5070512;28;21156;-69
2021/03/04 04:10:07;;;;;;;1.40;1.30;;;6.10;98.00;;;;;;5073490;28;20448;-69
2021/03/04 04:12:35;;;;;;;2.47;2.10;;;6.10;98.00;;;;;;5070960;28;20499;-69
2021/03/04 04:15:02;;;;;;;2.63;2.13;;;6.00;98.00;;;;;;5073190;28;21029;-69
2021/03/04 04:17:29;;;;;;;2.90;2.13;;;5.80;98.00;;;;;;5070723;28;20464;-69
2021/03/04 04:19:56;;;;;;;1.30;1.23;;;5.80;98.00;;;;;;5073340;28;20465;-69
2021/03/04 04:22:23;;;;;;;1.67;1.60;;;5.90;98.00;;;;;;5069521;28;20460;-69
2021/03/04 04:24:50;;;;;;;1.30;1.20;;;5.90;98.00;;;;;;5073237;28;20497;-69
2021/03/04 04:27:17;;;;;;;2.80;2.20;;;6.00;98.00;;;;;;5070785;28;20574;-69
2021/03/04 04:29:45;;;;;;;3.70;2.43;;;6.00;98.00;;;;;;5073301;28;20456;-69
2021/03/04 04:32:11;;;;;;;1.60;1.50;;;6.00;98.00;;;;;;5069811;28;20457;-68
2021/03/04 04:34:38;;;;;;;2.90;2.30;;;5.90;98.00;;;;;;5072913;28;20457;-69
2021/03/04 04:37:05;;;;;;;5.23;2.43;;;6.00;98.00;;;;;;5070450;28;20464;-69
2021/03/04 04:39:31;;;;;;;1.40;1.30;;;6.10;98.00;;;;;;5072781;28;20490;-68
2021/03/04 04:41:58;;;;;;;1.73;1.50;;;6.00;98.00;;;;;;5052352;28;20803;-69
2021/03/04 04:44:24;;;;;;;2.33;1.73;;;5.80;98.00;;;;;;5072444;28;20517;-69
2021/03/04 04:46:52;;;;;;;5.23;2.87;;;5.70;98.00;;;;;;5070215;28;20506;-69
2021/03/04 04:49:19;;;;;;;1.70;1.50;;;5.70;98.00;;;;;;5072839;28;20453;-69
2021/03/04 04:51:45;;;;;;;3.80;2.43;;;5.60;98.00;;;;;;5070217;28;20466;-69
2021/03/04 04:54:12;;;;;;;3.30;2.20;;;5.60;98.00;;;;;;5072629;28;20461;-69
2021/03/04 04:56:39;;;;;;;2.60;1.97;;;5.70;98.00;;;;;;5068804;28;20548;-69
2021/03/04 04:59:06;;;;;;;1.70;1.40;;;5.70;98.00;;;;;;5072763;28;20460;-69
2021/03/04 05:01:32;;;;;;;3.63;2.90;;;5.60;98.00;;;;;;5070116;28;20543;-69
2021/03/04 05:04:00;;;;;;;2.47;1.60;;;5.70;98.00;;;;;;5072547;28;20470;-69
2021/03/04 05:06:26;;;;;;;2.00;1.90;;;5.70;98.00;;;;;;5071527;28;20482;-69
2021/03/04 05:08:53;;;;;;;3.83;1.57;;;5.50;98.00;;;;;;5071011;28;20467;-69
2021/03/04 05:11:19;;;;;;;1.50;1.30;;;5.40;98.00;;;;;;5072661;28;20466;-69
2021/03/04 05:13:46;;;;;;;3.17;2.90;;;5.40;98.00;;;;;;5070387;28;20464;-69
2021/03/04 05:16:12;;;;;;;3.93;2.20;;;5.20;98.00;;;;;;5072715;28;20816;-69
2021/03/04 05:18:41;;;;;;;1.57;1.43;;;5.20;98.00;;;;;;5070003;28;20458;-69
2021/03/04 05:21:09;;;;;;;2.23;1.60;;;5.30;98.00;;;;;;5072371;28;20445;-69
2021/03/04 05:23:35;;;;;;;4.23;2.70;;;5.40;98.00;;;;;;5069993;28;20462;-69
2021/03/04 05:26:02;;;;;;;1.63;1.63;;;5.30;98.00;;;;;;5072295;28;20486;-69
2021/03/04 05:28:29;;;;;;;7.03;2.83;;;5.20;98.00;;;;;;5069838;28;20456;-69
2021/03/04 05:30:56;;;;;;;1.70;1.60;;;5.10;98.00;;;;;;5072102;28;20511;-69
2021/03/04 05:33:22;;;;;;;1.40;1.33;;;5.10;98.00;;;;;;5069508;28;20454;-69
2021/03/04 05:35:49;;;;;;;1.73;1.57;;;5.00;98.00;;;;;;5071607;28;20468;-69
2021/03/04 05:38:17;;;;;;;2.17;1.70;;;5.00;98.00;;;;;;5069701;28;20491;-69
2021/03/04 05:40:44;;;;;;;2.30;2.17;;;5.10;98.00;;;;;;5071823;28;20451;-69
2021/03/04 05:43:13;;;;;;;1.90;1.60;;;5.00;98.00;;;;;;5069380;28;20491;-69
2021/03/04 05:45:41;;;;;;;2.00;1.33;;;5.00;98.00;;;;;;5071390;28;20835;-69
2021/03/04 05:48:11;;;;;;;2.43;1.80;;;4.90;98.00;;;;;;5069104;28;20484;-69
2021/03/04 05:50:47;;;;;;;1.67;1.30;;;4.90;98.00;;;;;;5070288;28;20966;-69
2021/03/04 05:53:18;;;;;;;2.77;2.10;;;4.90;98.00;;;;;;5069212;28;20493;-69
2021/03/04 05:55:45;;;;;;;1.40;1.30;;;5.00;98.00;;;;;;5070093;28;20562;-69
2021/03/04 05:58:12;;;;;;;2.37;1.73;;;5.10;98.00;;;;;;5069276;28;20498;-69
2021/03/04 06:00:41;;;;;;;1.40;1.27;;;5.10;98.00;;;;;;5070066;28;20488;-69
2021/03/04 06:03:07;;;;;;;2.03;1.57;;;5.20;98.00;;;;;;5069309;28;20453;-69
2021/03/04 06:05:34;;;;;;;1.97;1.53;;;5.10;98.00;;;;;;5071393;28;20451;-69
2021/03/04 06:08:05;;;;;;;2.20;1.93;;;5.00;98.00;;;;;;5069158;28;20520;-69
2021/03/04 06:10:34;;;;;;;1.67;1.63;;;5.00;98.00;;;;;;5071157;28;20513;-69
2021/03/04 06:13:01;;;;;;;3.97;2.70;;;5.00;98.00;;;;;;5069059;28;20462;-69
2021/03/04 06:15:28;;;;;;;7.20;4.70;;;5.10;98.00;;;;;;5070977;28;20840;-69
2021/03/04 06:17:57;;;;;;;3.20;1.83;;;5.30;98.00;;;;;;5067723;28;20479;-69
2021/03/04 06:20:35;;;;;;;2.17;1.97;;;5.30;98.00;;;;;;5069771;28;20470;-69
2021/03/04 06:23:01;;;;;;;3.77;2.27;;;5.10;98.00;;;;;;5068850;28;20482;-69
2021/03/04 06:25:28;;;;;;;4.10;1.93;;;5.00;98.00;;;;;;5069963;28;20539;-69
2021/03/04 06:27:56;;;;;;;2.43;2.03;;;5.00;98.00;;;;;;5067722;28;20555;-69
2021/03/04 06:30:23;;;;;;;1.57;1.53;;;5.00;98.00;;;;;;5071330;28;20485;-69
2021/03/04 06:32:57;;;;;;;5.30;2.20;;;5.10;98.00;;;;;;5068932;28;20997;-69
2021/03/04 06:35:29;;;;;;;3.30;1.70;;;5.20;98.00;;;;;;5071425;28;20452;-69
2021/03/04 06:37:57;;;;;;;3.50;1.50;;;5.30;98.00;;;;;;5069283;28;20463;-69
2021/03/04 06:40:26;;;;;;;1.97;1.37;;;5.40;98.00;;;;;;5071478;28;20567;-69
2021/03/04 06:42:56;;;;;;;2.17;1.73;;;5.40;98.00;;;;;;5068908;28;20508;-69
2021/03/04 06:45:33;;;;;;;1.70;1.50;;;5.40;98.00;;;;;;5071080;28;20532;-69
2021/03/04 06:48:07;;;;;;;2.13;1.50;;;5.50;98.00;;;;;;5068795;28;20489;-69
2021/03/04 06:50:34;;;;;;;2.67;2.23;;;5.50;98.00;;;;;;5070967;28;20467;-69
2021/03/04 06:53:12;;;;;;;3.13;2.53;;;5.50;98.00;;;;;;5068747;28;20464;-69
2021/03/04 06:55:48;;;;;;;2.40;1.20;;;5.60;98.00;;;;;;5069844;28;20462;-69
2021/03/04 06:58:22;;;;;;;2.17;1.73;;;5.60;98.00;;;;;;5068816;28;20462;-69
2021/03/04 07:01:04;;;;;;;1.80;1.60;;;5.70;98.00;;;;;;5071056;28;20514;-69
2021/03/04 07:03:41;;;;;;;1.50;1.50;;;5.70;98.00;;;;;;5068936;28;20813;-69
2021/03/04 07:06:09;;;;;;;2.40;1.97;;;5.80;98.00;;;;;;5072258;28;20461;-69
2021/03/04 07:08:37;;;;;;;2.67;2.37;;;5.90;98.00;;;;;;5072580;28;20461;-69
2021/03/04 07:11:05;;;;;;;1.50;1.47;;;5.90;98.00;;;;;;5074790;28;20553;-69
2021/03/04 07:13:35;;;;;;;3.43;1.90;;;5.90;98.00;;;;;;5072708;28;20495;-69
2021/03/04 07:16:04;;;;;;;3.87;1.87;;;5.90;98.00;;;;;;5074466;28;20471;-69
2021/03/04 07:18:34;;;;;;;6.33;2.73;;;5.90;98.00;;;;;;5072326;28;20464;-69
2021/03/04 07:21:02;;;;;;;1.73;1.53;;;5.80;98.00;;;;;;5074323;28;20454;-69
2021/03/04 07:23:29;;;;;;;2.80;1.93;;;5.90;98.00;;;;;;5072173;28;20464;-69
2021/03/04 07:25:56;;;;;;;1.87;1.63;;;6.00;98.00;;;;;;5074319;28;20464;-69
2021/03/04 07:28:24;;;;;;;2.30;2.10;;;6.00;98.00;;;;;;5072178;28;20499;-69
2021/03/04 07:30:52;;;;;;;4.93;1.90;;;6.10;98.00;;;;;;5074259;28;20465;-69
2021/03/04 07:33:19;;;;;;;3.40;1.70;;;6.10;98.00;;;;;;5072094;28;20550;-69
2021/03/04 07:35:47;;;;;;;1.60;1.50;;;6.20;98.00;;;;;;5073858;28;20858;-69
2021/03/04 07:38:26;;;;;;;1.20;1.17;;;6.20;98.00;;;;;;5071900;28;20950;-69
2021/03/04 07:41:07;;;;;;;2.10;1.57;;;6.50;98.00;;;;;;5074013;28;20457;-69
2021/03/04 07:43:47;;;;;;;3.60;2.40;;;7.10;98.00;;;;;;5071787;28;21108;-70
2021/03/04 07:46:26;;;;;;;3.23;2.87;;;7.20;98.00;;;;;;5073790;28;20501;-70
2021/03/04 07:48:53;;;;;;;2.67;1.97;;;7.30;98.00;;;;;;5071565;28;20831;-70
2021/03/04 07:51:20;;;;;;;1.70;1.47;;;7.10;98.00;;;;;;5073902;28;20463;-70
2021/03/04 07:53:48;;;;;;;1.30;1.30;;;7.10;98.00;;;;;;5071343;28;20838;-70
2021/03/04 07:56:28;;;;;;;3.63;2.87;;;7.10;98.00;;;;;;5073718;28;20565;-70
2021/03/04 07:58:56;;;;;;;2.20;1.93;;;7.10;98.00;;;;;;5071362;28;20455;-69
2021/03/04 08:01:27;;;;;;;2.40;2.00;;;7.20;98.00;;;;;;5073680;28;20490;-69
2021/03/04 08:03:54;;;;;;;3.80;2.80;;;7.40;98.00;;;;;;5071254;28;20462;-69
2021/03/04 08:06:20;;;;;;;3.03;1.87;;;7.70;98.00;;;;;;5073496;28;20482;-69
2021/03/04 08:08:48;;;;;;;2.63;2.10;;;7.70;98.00;;;;;;5071601;28;20461;-69
2021/03/04 08:11:30;;;;;;;4.83;3.07;;;7.60;98.00;;;;;;5073658;28;20506;-70
2021/03/04 08:13:57;;;;;;;2.10;1.97;;;7.50;98.00;;;;;;5071339;28;20544;-69
2021/03/04 08:16:31;;;;;;;4.17;1.47;;;7.60;98.00;;;;;;5073615;28;20503;-69
2021/03/04 08:18:59;;;;;;;3.50;2.17;;;7.60;98.00;;;;;;5069712;28;20476;-69
2021/03/04 08:21:26;;;;;;;4.17;2.80;;;7.70;98.00;;;;;;5072432;28;20458;-69
2021/03/04 08:23:53;;;;;;;2.63;1.90;;;7.90;98.00;;;;;;5071194;28;20459;-70
2021/03/04 08:26:25;;;;;;;2.77;2.40;;;8.20;98.00;;;;;;5073207;28;20510;-69
2021/03/04 08:29:03;;;;;;;2.03;1.53;;;8.40;98.00;;;;;;5070888;28;20493;-69
2021/03/04 08:34:13;;;;;;;2.07;1.60;;;8.70;98.00;;;;;;5070547;28;20458;-70
2021/03/04 08:36:45;;;;;;;1.93;1.83;;;8.90;98.00;;;;;;5072857;28;20485;-70
2021/03/04 08:39:13;;;;;;;2.03;1.90;;;9.00;98.00;;;;;;5071013;28;20864;-69
2021/03/04 08:41:40;;;;;;;1.87;1.80;;;9.10;98.00;;;;;;5072791;28;20889;-68
2021/03/04 08:44:11;;;;;;;1.97;1.80;;;9.30;98.00;;;;;;5070605;28;20816;-68
2021/03/04 08:46:40;;;;;;;1.40;1.13;;;9.40;98.00;;;;;;5072437;28;20480;-69
2021/03/04 08:49:06;;;;;;;2.10;1.60;;;9.80;98.00;;;;;;5070316;28;20453;-68
2021/03/04 08:51:35;;;;;;;2.80;1.90;;;10.30;98.00;;;;;;5072663;28;20539;-69
2021/03/04 08:54:02;;;;;;;2.20;1.77;;;10.90;98.00;;;;;;5068664;28;20484;-70
2021/03/04 08:56:29;;;;;;;3.70;2.70;;;11.40;98.00;;;;;;5072354;28;20866;-71
2021/03/04 08:58:55;;;;;;;8.73;2.17;;;11.80;98.00;;;;;;5069265;28;20469;-70
2021/03/04 09:01:30;;;;;;;2.50;1.50;;;12.20;97.90;;;;;;5071666;28;20455;-72
2021/03/04 09:03:57;;;;;;;3.87;2.07;;;12.50;95.00;;;;;;5069189;28;20455;-70
2021/03/04 09:06:24;;;;;;;1.80;1.70;;;12.60;96.10;;;;;;5071478;28;20880;-69
2021/03/04 09:08:52;;;;;;;2.47;1.77;;;12.90;94.90;;;;;;5069100;28;20468;-71
2021/03/04 09:11:27;;;;;;;2.60;1.87;;;13.20;94.00;;;;;;5071705;28;20495;-70
2021/03/04 09:14:01;;;;;;;5.40;2.50;;;13.40;93.70;;;;;;5068082;28;20489;-71
2021/03/04 09:16:28;;;;;;;2.07;1.83;;;13.60;91.80;;;;;;5071986;28;20512;-72
2021/03/04 09:18:55;;;;;;;2.50;2.30;;;13.30;89.70;;;;;;5069125;28;20942;-71
2021/03/04 09:21:22;;;;;;;5.03;2.30;;;13.00;90.40;;;;;;5070136;28;20473;-71
2021/03/04 09:23:50;;;;;;;2.73;1.93;;;12.90;90.30;;;;;;5069034;28;20834;-71
2021/03/04 09:26:17;;;;;;;5.37;2.60;;;13.00;89.50;;;;;;5071523;28;20498;-71
2021/03/04 09:28:45;;;;;;;1.83;1.77;;;12.90;88.70;;;;;;5067037;28;20466;-71
2021/03/04 09:31:12;;;;;;;3.83;1.80;;;12.90;88.80;;;;;;5071176;28;20983;-72
2021/03/04 09:33:40;;;;;;;1.67;1.60;;;13.00;86.10;;;;;;5068746;28;20458;-71
2021/03/04 09:36:07;;;;;;;1.60;1.53;;;13.10;85.30;;;;;;5070248;28;20918;-71
2021/03/04 09:38:39;;;;;;;2.17;1.67;;;13.10;83.20;;;;;;5069091;28;20467;-71
2021/03/04 09:41:10;;;;;;;1.70;1.60;;;13.20;82.30;;;;;;5071609;28;20461;-71
2021/03/04 09:43:42;;;;;;;2.43;1.90;;;13.10;83.20;;;;;;5069023;28;20458;-71
2021/03/04 09:46:08;;;;;;;1.53;1.47;;;13.20;85.10;;;;;;5070968;28;20831;-71
2021/03/04 09:48:37;;;;;;;1.80;1.77;;;13.40;84.40;;;;;;5068270;28;20503;-72
2021/03/04 09:51:04;;;;;;;1.70;1.20;;;13.60;83.50;;;;;;5071504;28;20946;-72
2021/03/04 09:53:31;;;;;;;4.10;2.17;;;13.70;83.10;;;;;;5068940;28;20452;-72
2021/03/04 09:56:04;;;;;;;1.60;1.60;;;13.90;82.80;;;;;;5070156;28;20497;-72
2021/03/04 09:58:31;;;;;;;4.30;1.40;;;14.10;82.00;;;;;;5069152;28;20950;-71
2021/03/04 10:00:59;;;;;;;2.63;1.60;;;14.30;81.10;;;;;;5069906;28;20881;-71
2021/03/04 10:03:32;;;;;;;7.00;2.10;;;14.50;79.60;;;;;;5069306;28;20511;-72
2021/03/04 10:05:59;;;;;;;1.60;1.50;;;14.70;79.70;;;;;;5071201;28;20479;-72
2021/03/04 10:08:26;;;;;;;1.20;1.17;;;14.90;77.70;;;;;;5069112;28;20516;-72
2021/03/04 10:10:52;;;;;;;1.63;1.50;;;14.90;78.80;;;;;;5071490;28;20488;-72
2021/03/04 10:13:30;;;;;;;2.60;1.53;;;14.80;77.90;;;;;;5069210;28;20961;-71
2021/03/04 10:16:08;;;;;;;1.63;1.40;;;14.90;76.70;;;;;;5071347;28;20451;-71
2021/03/04 10:18:35;;;;;;;1.53;1.53;;;14.70;76.60;;;;;;5069241;28;20454;-71
2021/03/04 10:21:02;;;;;;;2.33;2.13;;;14.70;76.20;;;;;;5071385;28;20466;-71
2021/03/04 10:23:29;;;;;;;3.10;1.80;;;14.90;76.40;;;;;;5069051;28;20459;-72
2021/03/04 10:25:55;;;;;;;2.50;1.63;;;15.00;76.20;;;;;;5071277;28;20491;-72
2021/03/04 10:28:22;;;;;;;3.10;1.73;;;15.20;76.80;;;;;;5068567;28;20522;-71
2021/03/04 10:30:49;;;;;;;3.00;2.07;;;15.20;75.20;;;;;;5071193;28;20519;-71
2021/03/04 10:33:17;;;;;;;2.07;1.47;;;15.20;75.70;;;;;;5069151;28;20872;-71
2021/03/04 10:35:44;;;;;;;2.27;1.77;;;15.30;76.50;;;;;;5069818;28;20469;-71
2021/03/04 10:38:11;;;;;;;3.10;2.03;;;15.20;75.30;;;;;;5068713;28;20461;-72
2021/03/04 10:40:37;;;;;;;2.90;2.40;;;15.40;74.80;;;;;;5071619;28;20854;-72
2021/03/04 10:43:04;;;;;;;2.80;1.50;;;15.50;74.10;;;;;;5072769;28;20480;-72
2021/03/04 10:45:30;;;;;;;4.20;1.77;;;15.70;76.30;;;;;;5075027;28;20492;-72
2021/03/04 10:47:58;;;;;;;1.83;1.53;;;15.90;75.60;;;;;;5072604;28;20542;-72
2021/03/04 10:50:25;;;;;;;2.17;1.50;;;16.10;74.30;;;;;;5074979;28;20466;-72
2021/03/04 10:52:51;;;;;;;2.07;1.73;;;16.30;72.80;;;;;;5072540;28;20520;-72
2021/03/04 10:55:18;;;;;;;1.53;1.53;;;16.00;73.10;;;;;;5074633;28;20509;-73
2021/03/04 10:57:44;;;;;;;2.43;1.90;;;15.80;73.90;;;;;;5072298;28;20514;-72
2021/03/04 11:00:12;;;;;;;4.27;1.47;;;15.70;74.10;;;;;;5074555;28;20466;-72
2021/03/04 11:02:39;;;;;;;6.10;2.00;;;15.80;73.40;;;;;;5072176;28;20462;-72
2021/03/04 11:05:09;;;;;;;3.63;1.87;;;16.00;74.50;;;;;;5074508;28;20537;-72
2021/03/04 11:07:36;;;;;;;1.20;1.10;;;16.10;73.90;;;;;;5070806;28;20986;-72
2021/03/04 11:10:04;;;;;;;1.90;1.83;;;16.20;73.70;;;;;;5074624;28;20510;-72
2021/03/04 11:12:31;;;;;;;2.50;1.80;;;16.50;73.50;;;;;;5072326;28;20452;-73
2021/03/04 11:14:57;;;;;;;2.90;1.50;;;16.80;73.40;;;;;;5075050;28;20475;-72
2021/03/04 11:17:24;;;;;;;3.30;2.43;;;16.90;71.70;;;;;;5072267;28;20451;-72
2021/03/04 11:19:51;;;;;;;2.40;1.50;;;17.00;72.00;;;;;;5074873;28;20456;-72
2021/03/04 11:22:18;;;;;;;1.77;1.70;;;17.10;71.90;;;;;;5072219;28;20452;-72
2021/03/04 11:24:46;;;;;;;3.37;1.73;;;17.10;72.20;;;;;;5074462;28;20988;-72
2021/03/04 11:27:14;;;;;;;1.87;1.43;;;17.20;71.90;;;;;;5071964;28;20519;-72
2021/03/04 11:29:40;;;;;;;2.23;1.57;;;17.50;71.70;;;;;;5074270;28;20459;-72
2021/03/04 11:32:07;;;;;;;3.70;2.07;;;17.70;72.00;;;;;;5071403;28;20537;-72
2021/03/04 11:34:34;;;;;;;3.33;2.33;;;17.80;71.20;;;;;;5073032;28;20918;-73
2021/03/04 11:37:01;;;;;;;3.20;1.80;;;18.00;69.90;;;;;;5072523;28;20452;-72
2021/03/04 11:39:29;;;;;;;5.27;2.73;;;17.90;68.90;;;;;;5071863;28;20484;-72
2021/03/04 11:41:55;;;;;;;3.53;1.53;;;17.80;69.20;;;;;;5073554;28;20970;-73
2021/03/04 11:44:22;;;;;;;5.70;2.63;;;17.80;68.90;;;;;;5070873;28;20457;-73
2021/03/04 11:46:48;;;;;;;3.73;2.40;;;17.50;67.90;;;;;;5073351;28;20476;-73
2021/03/04 11:49:15;;;;;;;2.60;2.10;;;17.60;69.00;;;;;;5071489;28;20460;-73
2021/03/04 11:51:41;;;;;;;1.70;1.23;;;18.00;68.70;;;;;;5072908;28;20488;-73
2021/03/04 11:54:09;;;;;;;2.73;2.03;;;18.10;69.10;;;;;;5070885;28;20466;-74
2021/03/04 11:56:37;;;;;;;4.23;2.40;;;18.40;68.00;;;;;;5073419;28;20468;-73
2021/03/04 11:59:05;;;;;;;4.20;2.20;;;18.50;67.90;;;;;;5069823;28;20457;-72
2021/03/04 12:01:32;;;;;;;2.00;1.83;;;18.40;67.40;;;;;;5073340;28;20460;-72
2021/03/04 12:03:59;;;;;;;1.70;1.70;;;18.20;69.10;;;;;;5070570;28;20469;-73
2021/03/04 12:06:25;;;;;;;2.73;1.73;;;18.20;68.90;;;;;;5072983;28;20550;-73
2021/03/04 12:08:52;;;;;;;2.13;1.87;;;18.20;69.40;;;;;;5071579;28;20461;-73
2021/03/04 12:11:20;;;;;;;2.80;1.80;;;18.40;70.10;;;;;;5072824;28;21120;-73
2021/03/04 12:13:47;;;;;;;2.43;1.90;;;18.50;68.70;;;;;;5070553;28;20492;-73
2021/03/04 12:16:15;;;;;;;3.57;2.50;;;18.50;69.40;;;;;;5071773;28;20503;-73
2021/03/04 12:18:41;;;;;;;9.93;3.00;;;18.30;70.30;;;;;;5070973;28;20461;-73
2021/03/04 12:21:09;;;;;;;1.93;1.63;;;18.20;71.70;;;;;;5073640;28;20958;-73
2021/03/04 12:23:35;;;;;;;3.17;1.97;;;17.70;70.80;;;;;;5071313;28;20815;-73
2021/03/04 12:26:02;;;;;;;3.27;2.23;;;17.20;71.90;;;;;;5073345;28;20465;-73
2021/03/04 12:28:29;;;;;;;3.73;2.50;;;16.90;73.20;;;;;;5071880;28;20480;-74
2021/03/04 12:30:57;;;;;;;1.83;1.73;;;16.80;74.70;;;;;;5073462;28;20445;-73
2021/03/04 12:33:23;;;;;;;5.83;1.93;;;16.60;73.50;;;;;;5071083;28;20467;-73
2021/03/04 12:35:50;;;;;;;1.87;1.70;;;16.70;72.80;;;;;;5073185;28;21065;-73
2021/03/04 12:38:16;;;;;;;3.53;1.80;;;16.90;72.00;;;;;;5070729;28;20461;-73
2021/03/04 12:40:43;;;;;;;2.00;1.60;;;17.10;72.40;;;;;;5072670;28;20459;-73
2021/03/04 12:43:10;;;;;;;1.97;1.73;;;17.10;71.60;;;;;;5070149;28;20470;-73
2021/03/04 12:45:36;;;;;;;2.10;1.80;;;17.20;71.30;;;;;;5070898;28;20512;-73
2021/03/04 12:48:05;;;;;;;2.87;1.70;;;17.10;70.70;;;;;;5070442;28;20491;-73
2021/03/04 12:50:31;;;;;;;1.70;1.30;;;17.10;71.70;;;;;;5087914;28;21151;-73
2021/03/04 12:53:00;;;;;;;1.80;1.40;;;17.20;70.60;;;;;;5069993;28;20465;-73
2021/03/04 12:55:30;;;;;;;3.43;1.80;;;17.30;68.70;;;;;;5072029;28;20464;-74
2021/03/04 12:57:57;;;;;;;1.83;1.70;;;17.20;68.80;;;;;;5085434;28;20510;-74
2021/03/04 13:00:24;;;;;;;2.73;1.73;;;17.30;69.40;;;;;;5072123;28;20923;-74
2021/03/04 13:02:51;;;;;;;2.00;1.40;;;17.20;68.30;;;;;;5068944;28;20553;-73